sensor_id;sensor_type;location;lat;lon;timestamp;pressure;altitude;pressure_sealevel;temperature;humidity
54455;BME280;40364;52.270;10.546;2022-08-03T00:01:01;100585.16;;;34.81;30.13
54455;BME280;40364;52.270;10.546;2022-08-03T00:03:27;100587.69;;;34.07;30.77
54455;BME280;40364;52.270;10.546;2022-08-03T00:05:54;100588.59;;;33.93;30.81
54455;BME280;40364;52.270;10.546;2022-08-03T00:08:21;100588.72;;;33.84;30.76
54455;BME280;40364;52.270;10.546;2022-08-03T00:10:49;100585.84;;;33.69;30.92
54455;BME280;40364;52.270;10.546;2022-08-03T00:13:16;100586.34;;;33.82;31.09
54455;BME280;40364;52.270;10.546;2022-08-03T00:15:44;100583.16;;;33.80;31.44
54455;BME280;40364;52.270;10.546;2022-08-03T00:18:10;100583.53;;;33.88;30.86
54455;BME280;40364;52.270;10.546;2022-08-03T00:20:37;100584.53;;;33.85;30.82
54455;BME280;40364;52.270;10.546;2022-08-03T00:23:04;100575.91;;;33.35;31.58
54455;BME280;40364;52.270;10.546;2022-08-03T00:25:32;100579.47;;;33.44;31.38
54455;BME280;40364;52.270;10.546;2022-08-03T00:28:01;100575.69;;;33.73;30.83
54455;BME280;40364;52.270;10.546;2022-08-03T00:30:28;100574.69;;;33.97;30.31
54455;BME280;40364;52.270;10.546;2022-08-03T00:32:54;100574.34;;;34.09;30.55
54455;BME280;40364;52.270;10.546;2022-08-03T00:35:21;100574.88;;;33.53;31.29
54455;BME280;40364;52.270;10.546;2022-08-03T00:37:48;100573.06;;;33.55;31.10
54455;BME280;40364;52.270;10.546;2022-08-03T00:40:16;100576.75;;;33.56;31.59
54455;BME280;40364;52.270;10.546;2022-08-03T00:42:51;100573.41;;;33.98;30.98
54455;BME280;40364;52.270;10.546;2022-08-03T00:45:21;100571.28;;;33.58;31.89
54455;BME280;40364;52.270;10.546;2022-08-03T00:47:48;100573.06;;;33.55;31.33
54455;BME280;40364;52.270;10.546;2022-08-03T00:50:16;100572.75;;;33.88;30.75
54455;BME280;40364;52.270;10.546;2022-08-03T00:52:43;100565.47;;;33.23;31.76
54455;BME280;40364;52.270;10.546;2022-08-03T00:55:10;100564.41;;;33.55;31.29
54455;BME280;40364;52.270;10.546;2022-08-03T00:57:37;100563.22;;;32.97;31.81
54455;BME280;40364;52.270;10.546;2022-08-03T01:00:06;100560.44;;;32.88;32.00
54455;BME280;40364;52.270;10.546;2022-08-03T01:02:35;100562.72;;;33.49;31.08
54455;BME280;40364;52.270;10.546;2022-08-03T01:05:02;100555.25;;;34.18;30.38
54455;BME280;40364;52.270;10.546;2022-08-03T01:07:47;100556.72;;;33.02;31.89
54455;BME280;40364;52.270;10.546;2022-08-03T01:10:26;100549.00;;;32.94;31.62
54455;BME280;40364;52.270;10.546;2022-08-03T01:12:58;100560.00;;;33.10;31.72
54455;BME280;40364;52.270;10.546;2022-08-03T01:15:33;100556.00;;;33.22;31.20
54455;BME280;40364;52.270;10.546;2022-08-03T01:18:08;100553.84;;;32.73;31.99
54455;BME280;40364;52.270;10.546;2022-08-03T01:20:40;100555.06;;;32.37;32.68
54455;BME280;40364;52.270;10.546;2022-08-03T01:23:30;100559.91;;;32.45;32.43
54455;BME280;40364;52.270;10.546;2022-08-03T01:26:08;100553.94;;;32.49;32.32
54455;BME280;40364;52.270;10.546;2022-08-03T01:29:03;100551.28;;;32.90;31.34
54455;BME280;40364;52.270;10.546;2022-08-03T01:31:39;100554.91;;;34.10;30.07
54455;BME280;40364;52.270;10.546;2022-08-03T01:34:09;100550.28;;;32.34;32.19
54455;BME280;40364;52.270;10.546;2022-08-03T01:36:42;100547.69;;;32.65;31.86
54455;BME280;40364;52.270;10.546;2022-08-03T01:39:10;100559.31;;;32.41;32.01
54455;BME280;40364;52.270;10.546;2022-08-03T01:41:55;100547.69;;;32.12;32.68
54455;BME280;40364;52.270;10.546;2022-08-03T01:44:25;100553.25;;;32.39;32.21
54455;BME280;40364;52.270;10.546;2022-08-03T01:46:57;100556.66;;;32.14;32.53
54455;BME280;40364;52.270;10.546;2022-08-03T01:49:26;100561.59;;;32.37;32.31
54455;BME280;40364;52.270;10.546;2022-08-03T01:51:54;100552.75;;;32.02;32.99
54455;BME280;40364;52.270;10.546;2022-08-03T01:54:22;100554.84;;;32.02;32.74
54455;BME280;40364;52.270;10.546;2022-08-03T01:56:51;100558.84;;;32.58;32.33
54455;BME280;40364;52.270;10.546;2022-08-03T01:59:20;100551.25;;;32.45;32.13
54455;BME280;40364;52.270;10.546;2022-08-03T02:01:49;100556.66;;;32.38;32.33
54455;BME280;40364;52.270;10.546;2022-08-03T02:04:18;100554.03;;;32.25;32.59
54455;BME280;40364;52.270;10.546;2022-08-03T02:06:45;100547.25;;;31.90;32.90
54455;BME280;40364;52.270;10.546;2022-08-03T02:09:15;100552.34;;;31.95;32.89
54455;BME280;40364;52.270;10.546;2022-08-03T02:11:45;100554.41;;;31.94;32.73
54455;BME280;40364;52.270;10.546;2022-08-03T02:14:13;100553.00;;;31.66;33.39
54455;BME280;40364;52.270;10.546;2022-08-03T02:16:42;100560.53;;;31.63;33.23
54455;BME280;40364;52.270;10.546;2022-08-03T02:19:10;100561.41;;;33.14;31.69
54455;BME280;40364;52.270;10.546;2022-08-03T02:21:40;100551.88;;;31.72;33.30
54455;BME280;40364;52.270;10.546;2022-08-03T02:24:09;100557.69;;;31.54;33.32
54455;BME280;40364;52.270;10.546;2022-08-03T02:26:37;100553.06;;;32.58;32.30
54455;BME280;40364;52.270;10.546;2022-08-03T02:29:10;100555.72;;;31.69;33.07
54455;BME280;40364;52.270;10.546;2022-08-03T02:31:38;100546.22;;;32.02;32.57
54455;BME280;40364;52.270;10.546;2022-08-03T02:34:10;100546.13;;;30.97;33.98
54455;BME280;40364;52.270;10.546;2022-08-03T02:36:41;100543.38;;;30.61;34.74
54455;BME280;40364;52.270;10.546;2022-08-03T02:39:10;100540.47;;;30.70;34.47
54455;BME280;40364;52.270;10.546;2022-08-03T02:41:44;100543.03;;;32.14;32.65
54455;BME280;40364;52.270;10.546;2022-08-03T02:46:41;100543.25;;;31.39;33.19
54455;BME280;40364;52.270;10.546;2022-08-03T02:49:11;100540.06;;;31.61;33.16
54455;BME280;40364;52.270;10.546;2022-08-03T02:51:40;100540.97;;;31.76;33.16
54455;BME280;40364;52.270;10.546;2022-08-03T02:54:08;100543.31;;;31.54;33.08
54455;BME280;40364;52.270;10.546;2022-08-03T02:56:36;100534.81;;;31.84;32.83
54455;BME280;40364;52.270;10.546;2022-08-03T02:59:04;100542.06;;;32.18;32.60
54455;BME280;40364;52.270;10.546;2022-08-03T03:01:31;100536.13;;;32.21;32.42
54455;BME280;40364;52.270;10.546;2022-08-03T03:03:59;100538.00;;;32.09;32.80
54455;BME280;40364;52.270;10.546;2022-08-03T03:06:26;100542.69;;;32.22;32.30
54455;BME280;40364;52.270;10.546;2022-08-03T03:08:55;100532.63;;;31.78;32.93
54455;BME280;40364;52.270;10.546;2022-08-03T03:11:24;100535.72;;;31.90;32.87
54455;BME280;40364;52.270;10.546;2022-08-03T03:13:52;100520.16;;;34.51;29.17
54455;BME280;40364;52.270;10.546;2022-08-03T03:16:19;100527.09;;;32.28;31.61
54455;BME280;40364;52.270;10.546;2022-08-03T03:18:48;100522.06;;;32.14;32.26
54455;BME280;40364;52.270;10.546;2022-08-03T03:21:17;100527.50;;;31.49;33.18
54455;BME280;40364;52.270;10.546;2022-08-03T03:23:45;100533.53;;;31.37;33.21
54455;BME280;40364;52.270;10.546;2022-08-03T03:26:14;100531.38;;;31.46;33.04
54455;BME280;40364;52.270;10.546;2022-08-03T03:28:41;100533.88;;;31.54;33.62
54455;BME280;40364;52.270;10.546;2022-08-03T03:31:08;100523.09;;;31.72;33.13
54455;BME280;40364;52.270;10.546;2022-08-03T03:33:36;100535.06;;;31.95;32.70
54455;BME280;40364;52.270;10.546;2022-08-03T03:36:05;100530.91;;;31.72;32.45
54455;BME280;40364;52.270;10.546;2022-08-03T03:38:33;100531.56;;;31.91;32.80
54455;BME280;40364;52.270;10.546;2022-08-03T03:41:00;100528.06;;;31.87;32.50
54455;BME280;40364;52.270;10.546;2022-08-03T03:43:28;100534.88;;;31.98;32.36
54455;BME280;40364;52.270;10.546;2022-08-03T03:45:56;100531.63;;;32.20;32.03
54455;BME280;40364;52.270;10.546;2022-08-03T03:48:24;100541.66;;;32.10;32.29
54455;BME280;40364;52.270;10.546;2022-08-03T03:50:51;100540.28;;;32.20;32.49
54455;BME280;40364;52.270;10.546;2022-08-03T03:53:18;100531.69;;;31.96;32.15
54455;BME280;40364;52.270;10.546;2022-08-03T03:55:45;100530.81;;;32.05;32.36
54455;BME280;40364;52.270;10.546;2022-08-03T03:58:11;100538.84;;;32.39;31.87
54455;BME280;40364;52.270;10.546;2022-08-03T04:00:40;100537.66;;;32.31;31.99
54455;BME280;40364;52.270;10.546;2022-08-03T04:03:09;100537.53;;;32.26;32.11
54455;BME280;40364;52.270;10.546;2022-08-03T04:05:36;100539.94;;;32.27;32.13
54455;BME280;40364;52.270;10.546;2022-08-03T04:08:20;100538.47;;;32.08;32.01
54455;BME280;40364;52.270;10.546;2022-08-03T04:11:10;100536.84;;;31.92;32.55
54455;BME280;40364;52.270;10.546;2022-08-03T04:13:41;100541.31;;;32.46;31.22
54455;BME280;40364;52.270;10.546;2022-08-03T04:16:13;100541.34;;;31.60;32.96
54455;BME280;40364;52.270;10.546;2022-08-03T04:21:59;100544.53;;;31.71;32.67
54455;BME280;40364;52.270;10.546;2022-08-03T04:24:31;100548.50;;;31.74;32.73
54455;BME280;40364;52.270;10.546;2022-08-03T04:27:02;100540.06;;;31.61;32.84
54455;BME280;40364;52.270;10.546;2022-08-03T04:29:32;100544.38;;;31.42;32.87
54455;BME280;40364;52.270;10.546;2022-08-03T04:32:05;100545.22;;;31.57;32.86
54455;BME280;40364;52.270;10.546;2022-08-03T04:34:33;100547.50;;;32.01;32.19
54455;BME280;40364;52.270;10.546;2022-08-03T04:37:04;100546.28;;;32.31;31.87
54455;BME280;40364;52.270;10.546;2022-08-03T04:39:35;100554.75;;;32.50;31.54
54455;BME280;40364;52.270;10.546;2022-08-03T04:42:05;100551.16;;;32.25;31.74
54455;BME280;40364;52.270;10.546;2022-08-03T04:44:35;100557.84;;;32.90;31.10
54455;BME280;40364;52.270;10.546;2022-08-03T04:47:04;100557.84;;;32.75;31.16
54455;BME280;40364;52.270;10.546;2022-08-03T04:49:31;100555.28;;;32.09;32.03
54455;BME280;40364;52.270;10.546;2022-08-03T04:51:58;100557.91;;;32.22;31.60
54455;BME280;40364;52.270;10.546;2022-08-03T04:54:25;100552.00;;;31.78;32.54
54455;BME280;40364;52.270;10.546;2022-08-03T04:56:52;100562.88;;;31.98;32.27
54455;BME280;40364;52.270;10.546;2022-08-03T04:59:18;100566.50;;;31.84;32.59
54455;BME280;40364;52.270;10.546;2022-08-03T05:01:45;100561.03;;;31.86;32.45
54455;BME280;40364;52.270;10.546;2022-08-03T05:04:13;100564.22;;;31.88;32.59
54455;BME280;40364;52.270;10.546;2022-08-03T05:06:40;100569.94;;;33.24;31.36
54455;BME280;40364;52.270;10.546;2022-08-03T05:09:07;100568.38;;;32.34;32.09
54455;BME280;40364;52.270;10.546;2022-08-03T05:11:33;100567.78;;;32.60;31.58
54455;BME280;40364;52.270;10.546;2022-08-03T05:14:00;100563.81;;;34.53;28.94
54455;BME280;40364;52.270;10.546;2022-08-03T05:16:27;100574.75;;;32.68;31.40
54455;BME280;40364;52.270;10.546;2022-08-03T05:18:53;100574.38;;;32.75;31.38
54455;BME280;40364;52.270;10.546;2022-08-03T05:21:22;100576.72;;;32.62;31.36
54455;BME280;40364;52.270;10.546;2022-08-03T05:23:48;100572.38;;;32.81;31.44
54455;BME280;40364;52.270;10.546;2022-08-03T05:26:15;100570.16;;;32.46;32.08
54455;BME280;40364;52.270;10.546;2022-08-03T05:28:42;100579.25;;;32.98;31.08
54455;BME280;40364;52.270;10.546;2022-08-03T05:31:08;100570.72;;;33.39;30.48
54455;BME280;40364;52.270;10.546;2022-08-03T05:33:36;100567.56;;;33.22;31.16
54455;BME280;40364;52.270;10.546;2022-08-03T05:36:04;100569.97;;;33.59;30.49
54455;BME280;40364;52.270;10.546;2022-08-03T05:38:32;100571.06;;;33.61;30.55
54455;BME280;40364;52.270;10.546;2022-08-03T05:40:59;100569.38;;;33.90;30.20
54455;BME280;40364;52.270;10.546;2022-08-03T05:43:25;100566.88;;;33.62;30.46
54455;BME280;40364;52.270;10.546;2022-08-03T05:45:52;100566.00;;;33.76;30.35
54455;BME280;40364;52.270;10.546;2022-08-03T05:48:19;100569.34;;;33.20;30.75
54455;BME280;40364;52.270;10.546;2022-08-03T05:50:46;100568.38;;;33.78;30.30
54455;BME280;40364;52.270;10.546;2022-08-03T05:53:12;100563.91;;;33.57;30.44
54455;BME280;40364;52.270;10.546;2022-08-03T05:55:40;100567.41;;;33.46;30.82
54455;BME280;40364;52.270;10.546;2022-08-03T05:58:07;100562.31;;;33.56;30.44
54455;BME280;40364;52.270;10.546;2022-08-03T06:00:33;100554.63;;;33.18;31.22
54455;BME280;40364;52.270;10.546;2022-08-03T06:03:00;100559.81;;;33.13;31.25
54455;BME280;40364;52.270;10.546;2022-08-03T06:05:27;100559.97;;;33.95;30.30
54455;BME280;40364;52.270;10.546;2022-08-03T06:07:54;100565.53;;;33.98;30.48
54455;BME280;40364;52.270;10.546;2022-08-03T06:10:21;100554.41;;;33.36;31.05
54455;BME280;40364;52.270;10.546;2022-08-03T06:12:49;100552.19;;;33.66;30.77
54455;BME280;40364;52.270;10.546;2022-08-03T06:15:16;100563.78;;;33.16;31.43
54455;BME280;40364;52.270;10.546;2022-08-03T06:17:45;100558.66;;;33.40;31.35
54455;BME280;40364;52.270;10.546;2022-08-03T06:20:14;100564.59;;;33.87;30.27
54455;BME280;40364;52.270;10.546;2022-08-03T06:22:41;100559.22;;;34.40;29.59
54455;BME280;40364;52.270;10.546;2022-08-03T06:25:08;100558.56;;;34.57;29.38
54455;BME280;40364;52.270;10.546;2022-08-03T06:27:35;100557.56;;;34.60;29.43
54455;BME280;40364;52.270;10.546;2022-08-03T06:30:07;100562.16;;;34.72;29.20
54455;BME280;40364;52.270;10.546;2022-08-03T06:32:35;100559.84;;;34.50;29.70
54455;BME280;40364;52.270;10.546;2022-08-03T06:35:02;100558.38;;;35.23;28.85
54455;BME280;40364;52.270;10.546;2022-08-03T06:37:29;100562.00;;;35.50;28.38
54455;BME280;40364;52.270;10.546;2022-08-03T06:39:55;100561.22;;;35.18;28.75
54455;BME280;40364;52.270;10.546;2022-08-03T06:42:22;100558.06;;;35.53;28.60
54455;BME280;40364;52.270;10.546;2022-08-03T06:44:49;100564.47;;;35.62;28.40
54455;BME280;40364;52.270;10.546;2022-08-03T06:47:17;100567.09;;;35.60;28.40
54455;BME280;40364;52.270;10.546;2022-08-03T06:49:44;100568.66;;;36.04;27.90
54455;BME280;40364;52.270;10.546;2022-08-03T06:52:11;100569.34;;;36.64;27.19
54455;BME280;40364;52.270;10.546;2022-08-03T06:54:37;100577.53;;;36.60;26.80
54455;BME280;40364;52.270;10.546;2022-08-03T06:57:04;100577.78;;;36.62;27.72
54455;BME280;40364;52.270;10.546;2022-08-03T06:59:32;100577.59;;;36.11;28.09
54455;BME280;40364;52.270;10.546;2022-08-03T07:02:00;100571.88;;;35.69;27.87
54455;BME280;40364;52.270;10.546;2022-08-03T07:04:28;100580.13;;;36.47;27.28
54455;BME280;40364;52.270;10.546;2022-08-03T07:06:55;100577.50;;;36.49;27.61
54455;BME280;40364;52.270;10.546;2022-08-03T07:09:22;100579.88;;;36.56;27.01
54455;BME280;40364;52.270;10.546;2022-08-03T07:11:51;100587.28;;;36.57;27.18
54455;BME280;40364;52.270;10.546;2022-08-03T07:14:17;100585.69;;;36.56;27.48
54455;BME280;40364;52.270;10.546;2022-08-03T07:16:44;100592.06;;;36.76;26.51
54455;BME280;40364;52.270;10.546;2022-08-03T07:19:11;100585.91;;;36.35;27.56
54455;BME280;40364;52.270;10.546;2022-08-03T07:21:39;100590.91;;;36.29;27.76
54455;BME280;40364;52.270;10.546;2022-08-03T07:24:06;100584.59;;;35.40;28.79
54455;BME280;40364;52.270;10.546;2022-08-03T07:26:32;100591.22;;;36.70;27.68
54455;BME280;40364;52.270;10.546;2022-08-03T07:28:59;100597.09;;;37.15;26.84
54455;BME280;40364;52.270;10.546;2022-08-03T07:31:26;100596.31;;;37.37;26.68
54455;BME280;40364;52.270;10.546;2022-08-03T07:33:52;100594.63;;;36.47;27.67
54455;BME280;40364;52.270;10.546;2022-08-03T07:36:19;100601.22;;;36.47;28.17
54455;BME280;40364;52.270;10.546;2022-08-03T07:38:47;100596.66;;;38.08;26.21
54455;BME280;40364;52.270;10.546;2022-08-03T07:41:15;100597.28;;;37.90;26.23
54455;BME280;40364;52.270;10.546;2022-08-03T07:43:42;100601.34;;;38.33;25.94
54455;BME280;40364;52.270;10.546;2022-08-03T07:46:08;100600.91;;;38.65;26.03
54455;BME280;40364;52.270;10.546;2022-08-03T07:48:35;100599.94;;;38.46;25.86
54455;BME280;40364;52.270;10.546;2022-08-03T07:51:02;100599.28;;;39.11;25.22
54455;BME280;40364;52.270;10.546;2022-08-03T07:53:29;100597.75;;;38.98;25.61
54455;BME280;40364;52.270;10.546;2022-08-03T07:55:57;100597.03;;;38.46;25.87
54455;BME280;40364;52.270;10.546;2022-08-03T07:58:24;100599.06;;;39.03;25.26
54455;BME280;40364;52.270;10.546;2022-08-03T08:00:51;100593.69;;;37.28;27.12
54455;BME280;40364;52.270;10.546;2022-08-03T08:03:18;100594.41;;;37.73;26.98
54455;BME280;40364;52.270;10.546;2022-08-03T08:05:46;100599.72;;;37.58;27.30
54455;BME280;40364;52.270;10.546;2022-08-03T08:08:12;100591.69;;;37.97;26.90
54455;BME280;40364;52.270;10.546;2022-08-03T08:10:39;100597.66;;;37.25;27.19
54455;BME280;40364;52.270;10.546;2022-08-03T08:13:07;100594.34;;;37.95;26.68
54455;BME280;40364;52.270;10.546;2022-08-03T08:15:34;100585.50;;;38.76;25.38
54455;BME280;40364;52.270;10.546;2022-08-03T08:18:01;100592.72;;;38.99;24.53
54455;BME280;40364;52.270;10.546;2022-08-03T08:20:29;100587.94;;;38.19;25.25
54455;BME280;40364;52.270;10.546;2022-08-03T08:22:57;100582.84;;;37.00;26.82
54455;BME280;40364;52.270;10.546;2022-08-03T08:25:24;100586.28;;;37.10;26.65
54455;BME280;40364;52.270;10.546;2022-08-03T08:27:51;100580.41;;;37.71;25.91
54455;BME280;40364;52.270;10.546;2022-08-03T08:30:21;100581.34;;;38.54;25.18
54455;BME280;40364;52.270;10.546;2022-08-03T08:32:49;100589.34;;;38.89;24.85
54455;BME280;40364;52.270;10.546;2022-08-03T08:35:16;100588.75;;;38.14;25.71
54455;BME280;40364;52.270;10.546;2022-08-03T08:37:44;100584.44;;;36.96;27.34
54455;BME280;40364;52.270;10.546;2022-08-03T08:40:11;100581.34;;;38.60;25.37
54455;BME280;40364;52.270;10.546;2022-08-03T08:42:39;100583.47;;;38.07;26.17
54455;BME280;40364;52.270;10.546;2022-08-03T08:45:07;100578.09;;;38.74;25.25
54455;BME280;40364;52.270;10.546;2022-08-03T08:47:38;100574.03;;;38.48;25.59
54455;BME280;40364;52.270;10.546;2022-08-03T08:50:07;100571.34;;;39.75;24.29
54455;BME280;40364;52.270;10.546;2022-08-03T08:52:36;100578.59;;;37.57;26.68
54455;BME280;40364;52.270;10.546;2022-08-03T08:55:08;100581.91;;;39.54;24.20
54455;BME280;40364;52.270;10.546;2022-08-03T08:57:36;100576.34;;;39.26;24.74
54455;BME280;40364;52.270;10.546;2022-08-03T09:00:05;100584.25;;;38.13;25.72
54455;BME280;40364;52.270;10.546;2022-08-03T09:02:34;100585.59;;;38.12;25.84
54455;BME280;40364;52.270;10.546;2022-08-03T09:05:02;100580.38;;;37.88;26.05
54455;BME280;40364;52.270;10.546;2022-08-03T09:07:29;100578.38;;;38.71;25.22
54455;BME280;40364;52.270;10.546;2022-08-03T09:09:56;100584.53;;;37.98;25.82
54455;BME280;40364;52.270;10.546;2022-08-03T09:12:23;100574.00;;;38.89;25.12
54455;BME280;40364;52.270;10.546;2022-08-03T09:14:50;100576.22;;;38.77;25.16
54455;BME280;40364;52.270;10.546;2022-08-03T09:17:17;100578.09;;;39.10;24.91
54455;BME280;40364;52.270;10.546;2022-08-03T09:20:04;100580.97;;;38.80;25.40
54455;BME280;40364;52.270;10.546;2022-08-03T09:22:32;100579.59;;;37.82;26.04
54455;BME280;40364;52.270;10.546;2022-08-03T09:25:00;100578.53;;;38.43;24.88
54455;BME280;40364;52.270;10.546;2022-08-03T09:27:28;100573.72;;;38.92;24.79
54455;BME280;40364;52.270;10.546;2022-08-03T09:29:56;100571.44;;;38.38;25.21
54455;BME280;40364;52.270;10.546;2022-08-03T09:32:27;100578.84;;;38.34;25.34
54455;BME280;40364;52.270;10.546;2022-08-03T09:35:04;100577.50;;;37.77;25.94
54455;BME280;40364;52.270;10.546;2022-08-03T09:37:31;100582.13;;;38.14;25.49
54455;BME280;40364;52.270;10.546;2022-08-03T09:39:58;100574.84;;;38.42;24.88
54455;BME280;40364;52.270;10.546;2022-08-03T09:42:24;100577.94;;;37.98;25.45
54455;BME280;40364;52.270;10.546;2022-08-03T09:44:51;100573.34;;;38.25;25.25
54455;BME280;40364;52.270;10.546;2022-08-03T09:47:26;100572.50;;;39.42;24.34
54455;BME280;40364;52.270;10.546;2022-08-03T09:49:58;100578.09;;;39.64;24.01
54455;BME280;40364;52.270;10.546;2022-08-03T09:52:31;100572.28;;;39.64;23.34
54455;BME280;40364;52.270;10.546;2022-08-03T09:54:58;100568.19;;;39.19;24.94
54455;BME280;40364;52.270;10.546;2022-08-03T09:57:26;100564.78;;;37.86;25.45
54455;BME280;40364;52.270;10.546;2022-08-03T10:00:05;100579.13;;;38.30;25.05
54455;BME280;40364;52.270;10.546;2022-08-03T10:02:34;100575.63;;;38.84;24.74
54455;BME280;40364;52.270;10.546;2022-08-03T10:05:01;100569.47;;;38.58;24.94
54455;BME280;40364;52.270;10.546;2022-08-03T10:07:41;100571.59;;;38.93;24.56
54455;BME280;40364;52.270;10.546;2022-08-03T10:10:08;100564.56;;;39.91;23.76
54455;BME280;40364;52.270;10.546;2022-08-03T10:12:36;100576.06;;;38.17;25.04
54455;BME280;40364;52.270;10.546;2022-08-03T10:15:03;100565.47;;;39.02;24.25
54455;BME280;40364;52.270;10.546;2022-08-03T10:17:30;100573.28;;;38.83;24.79
54455;BME280;40364;52.270;10.546;2022-08-03T10:19:57;100555.34;;;40.06;23.24
54455;BME280;40364;52.270;10.546;2022-08-03T10:22:27;100561.38;;;39.40;23.88
54455;BME280;40364;52.270;10.546;2022-08-03T10:24:59;100557.03;;;40.39;23.52
54455;BME280;40364;52.270;10.546;2022-08-03T10:27:30;100554.81;;;39.83;23.57
54455;BME280;40364;52.270;10.546;2022-08-03T10:30:01;100563.38;;;38.15;25.35
54455;BME280;40364;52.270;10.546;2022-08-03T10:32:33;100559.72;;;39.21;24.46
54455;BME280;40364;52.270;10.546;2022-08-03T10:35:04;100555.13;;;40.04;23.41
54455;BME280;40364;52.270;10.546;2022-08-03T10:37:39;100555.25;;;39.44;23.66
54455;BME280;40364;52.270;10.546;2022-08-03T10:40:09;100552.59;;;38.51;25.02
54455;BME280;40364;52.270;10.546;2022-08-03T10:42:37;100550.66;;;39.54;23.36
54455;BME280;40364;52.270;10.546;2022-08-03T10:45:11;100555.13;;;38.65;25.01
54455;BME280;40364;52.270;10.546;2022-08-03T10:47:39;100554.63;;;38.09;25.46
54455;BME280;40364;52.270;10.546;2022-08-03T10:50:07;100539.72;;;39.36;24.12
54455;BME280;40364;52.270;10.546;2022-08-03T10:52:34;100541.38;;;39.56;23.92
54455;BME280;40364;52.270;10.546;2022-08-03T10:55:01;100535.44;;;39.86;24.09
54455;BME280;40364;52.270;10.546;2022-08-03T10:57:54;100536.44;;;39.45;24.14
54455;BME280;40364;52.270;10.546;2022-08-03T11:00:23;100541.97;;;39.49;23.49
54455;BME280;40364;52.270;10.546;2022-08-03T11:03:17;100533.56;;;40.07;23.11
54455;BME280;40364;52.270;10.546;2022-08-03T11:05:44;100523.91;;;40.36;22.64
54455;BME280;40364;52.270;10.546;2022-08-03T11:08:25;100529.25;;;38.92;23.73
54455;BME280;40364;52.270;10.546;2022-08-03T11:10:55;100526.75;;;40.04;23.07
54455;BME280;40364;52.270;10.546;2022-08-03T11:13:25;100516.50;;;40.35;22.65
54455;BME280;40364;52.270;10.546;2022-08-03T11:15:55;100512.72;;;40.03;22.63
54455;BME280;40364;52.270;10.546;2022-08-03T11:18:22;100525.28;;;40.35;22.78
54455;BME280;40364;52.270;10.546;2022-08-03T11:20:50;100529.44;;;40.02;22.41
54455;BME280;40364;52.270;10.546;2022-08-03T11:23:19;100525.84;;;41.83;20.76
54455;BME280;40364;52.270;10.546;2022-08-03T11:26:09;100530.72;;;42.27;20.46
54455;BME280;40364;52.270;10.546;2022-08-03T11:28:38;100525.03;;;41.95;20.59
54455;BME280;40364;52.270;10.546;2022-08-03T11:31:42;100525.16;;;41.77;20.87
54455;BME280;40364;52.270;10.546;2022-08-03T11:34:13;100535.84;;;41.61;20.42
54455;BME280;40364;52.270;10.546;2022-08-03T11:37:18;100523.38;;;42.68;20.12
54455;BME280;40364;52.270;10.546;2022-08-03T11:39:48;100510.59;;;44.21;18.54
54455;BME280;40364;52.270;10.546;2022-08-03T11:42:37;100512.72;;;42.57;20.23
54455;BME280;40364;52.270;10.546;2022-08-03T11:45:07;100525.91;;;41.90;20.36
54455;BME280;40364;52.270;10.546;2022-08-03T11:47:37;100514.69;;;42.76;19.52
54455;BME280;40364;52.270;10.546;2022-08-03T11:50:05;100513.97;;;43.24;19.38
54455;BME280;40364;52.270;10.546;2022-08-03T11:52:40;100523.31;;;43.23;19.48
54455;BME280;40364;52.270;10.546;2022-08-03T11:55:12;100528.44;;;43.58;18.57
54455;BME280;40364;52.270;10.546;2022-08-03T11:57:39;100521.81;;;43.58;18.50
54455;BME280;40364;52.270;10.546;2022-08-03T12:00:38;100516.47;;;44.21;18.10
54455;BME280;40364;52.270;10.546;2022-08-03T12:03:06;100519.69;;;42.88;18.97
54455;BME280;40364;52.270;10.546;2022-08-03T12:05:38;100517.03;;;42.09;19.72
54455;BME280;40364;52.270;10.546;2022-08-03T12:08:05;100514.13;;;44.19;17.98
54455;BME280;40364;52.270;10.546;2022-08-03T12:10:54;100512.88;;;44.66;17.42
54455;BME280;40364;52.270;10.546;2022-08-03T12:13:21;100511.50;;;44.67;17.84
54455;BME280;40364;52.270;10.546;2022-08-03T12:15:54;100507.06;;;45.12;17.51
54455;BME280;40364;52.270;10.546;2022-08-03T12:18:22;100504.19;;;44.38;17.76
54455;BME280;40364;52.270;10.546;2022-08-03T12:20:51;100505.50;;;44.80;17.95
54455;BME280;40364;52.270;10.546;2022-08-03T12:23:18;100505.19;;;44.40;18.31
54455;BME280;40364;52.270;10.546;2022-08-03T12:25:46;100499.53;;;44.42;17.94
54455;BME280;40364;52.270;10.546;2022-08-03T12:28:15;100506.72;;;45.93;17.25
54455;BME280;40364;52.270;10.546;2022-08-03T12:30:44;100506.13;;;44.27;17.94
54455;BME280;40364;52.270;10.546;2022-08-03T12:33:14;100507.81;;;44.74;17.52
54455;BME280;40364;52.270;10.546;2022-08-03T12:35:41;100510.81;;;46.78;15.71
54455;BME280;40364;52.270;10.546;2022-08-03T12:38:09;100507.19;;;44.53;17.46
54455;BME280;40364;52.270;10.546;2022-08-03T12:40:37;100499.44;;;44.93;17.61
54455;BME280;40364;52.270;10.546;2022-08-03T12:43:10;100507.41;;;46.82;15.73
54455;BME280;40364;52.270;10.546;2022-08-03T12:45:37;100500.13;;;46.18;16.13
54455;BME280;40364;52.270;10.546;2022-08-03T12:48:08;100496.25;;;45.52;16.67
54455;BME280;40364;52.270;10.546;2022-08-03T12:50:37;100496.28;;;44.91;17.53
54455;BME280;40364;52.270;10.546;2022-08-03T12:53:05;100491.63;;;46.29;16.02
54455;BME280;40364;52.270;10.546;2022-08-03T12:55:33;100487.22;;;46.78;15.75
54455;BME280;40364;52.270;10.546;2022-08-03T12:58:00;100487.63;;;44.71;17.29